sensor_id;sensor_type;location;lat;lon;timestamp;P1;durP1;ratioP1;P2;durP2;ratioP2
4724;SDS011;2376;53.544;10.226;2023-06-22T00:02:00;4.50;;;4.20;;
4724;SDS011;2376;53.544;10.226;2023-06-22T00:04:27;6.23;;;3.90;;
4724;SDS011;2376;53.544;10.226;2023-06-22T00:06:54;3.90;;;3.60;;
4724;SDS011;2376;53.544;10.226;2023-06-22T00:09:20;4.70;;;4.40;;
4724;SDS011;2376;53.544;10.226;2023-06-22T00:11:47;3.47;;;3.27;;
4724;SDS011;2376;53.544;10.226;2023-06-22T00:14:14;3.77;;;3.53;;
4724;SDS011;2376;53.544;10.226;2023-06-22T00:16:42;4.40;;;4.10;;
4724;SDS011;2376;53.544;10.226;2023-06-22T00:19:08;3.93;;;3.43;;
4724;SDS011;2376;53.544;10.226;2023-06-22T00:21:36;3.70;;;3.37;;
4724;SDS011;2376;53.544;10.226;2023-06-22T00:24:04;4.40;;;4.10;;
4724;SDS011;2376;53.544;10.226;2023-06-22T00:26:31;3.60;;;3.40;;
4724;SDS011;2376;53.544;10.226;2023-06-22T00:28:58;3.80;;;3.50;;
4724;SDS011;2376;53.544;10.226;2023-06-22T00:31:24;4.53;;;4.23;;
4724;SDS011;2376;53.544;10.226;2023-06-22T00:33:52;3.87;;;3.57;;
4724;SDS011;2376;53.544;10.226;2023-06-22T00:36:19;4.10;;;3.80;;
4724;SDS011;2376;53.544;10.226;2023-06-22T00:38:46;4.07;;;3.77;;
4724;SDS011;2376;53.544;10.226;2023-06-22T00:41:15;4.00;;;3.70;;
4724;SDS011;2376;53.544;10.226;2023-06-22T00:43:42;4.73;;;4.43;;
4724;SDS011;2376;53.544;10.226;2023-06-22T00:46:09;4.17;;;3.87;;
4724;SDS011;2376;53.544;10.226;2023-06-22T00:48:36;5.13;;;4.27;;
4724;SDS011;2376;53.544;10.226;2023-06-22T00:51:04;3.90;;;3.50;;
4724;SDS011;2376;53.544;10.226;2023-06-22T00:53:31;3.60;;;3.40;;
4724;SDS011;2376;53.544;10.226;2023-06-22T00:55:59;3.40;;;3.10;;
4724;SDS011;2376;53.544;10.226;2023-06-22T00:58:28;4.73;;;4.40;;
4724;SDS011;2376;53.544;10.226;2023-06-22T01:00:55;4.10;;;3.90;;
4724;SDS011;2376;53.544;10.226;2023-06-22T01:03:22;4.17;;;3.87;;
4724;SDS011;2376;53.544;10.226;2023-06-22T01:05:49;5.80;;;3.90;;
4724;SDS011;2376;53.544;10.226;2023-06-22T01:08:23;3.93;;;3.57;;
4724;SDS011;2376;53.544;10.226;2023-06-22T01:10:57;4.93;;;4.33;;
4724;SDS011;2376;53.544;10.226;2023-06-22T01:13:31;4.67;;;4.37;;
4724;SDS011;2376;53.544;10.226;2023-06-22T01:16:05;4.20;;;4.00;;
4724;SDS011;2376;53.544;10.226;2023-06-22T01:18:37;3.67;;;3.47;;
4724;SDS011;2376;53.544;10.226;2023-06-22T01:21:08;4.67;;;4.27;;
4724;SDS011;2376;53.544;10.226;2023-06-22T01:23:46;4.00;;;3.80;;
4724;SDS011;2376;53.544;10.226;2023-06-22T01:26:20;5.17;;;4.67;;
4724;SDS011;2376;53.544;10.226;2023-06-22T01:28:56;3.63;;;3.33;;
4724;SDS011;2376;53.544;10.226;2023-06-22T01:31:25;8.53;;;4.20;;
4724;SDS011;2376;53.544;10.226;2023-06-22T01:33:55;5.50;;;4.10;;
4724;SDS011;2376;53.544;10.226;2023-06-22T01:36:25;4.10;;;3.63;;
4724;SDS011;2376;53.544;10.226;2023-06-22T01:38:53;3.90;;;3.70;;
4724;SDS011;2376;53.544;10.226;2023-06-22T01:41:20;5.90;;;4.40;;
4724;SDS011;2376;53.544;10.226;2023-06-22T01:43:48;4.43;;;4.03;;
4724;SDS011;2376;53.544;10.226;2023-06-22T01:46:16;4.87;;;4.47;;
4724;SDS011;2376;53.544;10.226;2023-06-22T01:48:44;7.90;;;4.27;;
4724;SDS011;2376;53.544;10.226;2023-06-22T01:51:12;5.47;;;4.97;;
4724;SDS011;2376;53.544;10.226;2023-06-22T01:53:39;4.40;;;4.10;;
4724;SDS011;2376;53.544;10.226;2023-06-22T01:56:06;4.10;;;3.80;;
4724;SDS011;2376;53.544;10.226;2023-06-22T01:58:32;7.10;;;4.33;;
4724;SDS011;2376;53.544;10.226;2023-06-22T02:01:03;4.30;;;4.00;;
4724;SDS011;2376;53.544;10.226;2023-06-22T02:03:38;4.77;;;4.30;;
4724;SDS011;2376;53.544;10.226;2023-06-22T02:06:08;4.63;;;4.23;;
4724;SDS011;2376;53.544;10.226;2023-06-22T02:08:40;4.23;;;3.93;;
4724;SDS011;2376;53.544;10.226;2023-06-22T02:11:12;4.77;;;4.37;;
4724;SDS011;2376;53.544;10.226;2023-06-22T02:13:42;4.30;;;3.90;;
4724;SDS011;2376;53.544;10.226;2023-06-22T02:16:09;8.30;;;5.23;;
4724;SDS011;2376;53.544;10.226;2023-06-22T02:18:37;4.57;;;4.37;;
4724;SDS011;2376;53.544;10.226;2023-06-22T02:21:05;4.50;;;4.10;;
4724;SDS011;2376;53.544;10.226;2023-06-22T02:23:32;5.33;;;4.53;;
4724;SDS011;2376;53.544;10.226;2023-06-22T02:26:00;4.67;;;4.37;;
4724;SDS011;2376;53.544;10.226;2023-06-22T02:28:29;5.63;;;4.40;;
4724;SDS011;2376;53.544;10.226;2023-06-22T02:30:55;6.80;;;4.93;;
4724;SDS011;2376;53.544;10.226;2023-06-22T02:33:22;4.70;;;4.40;;
4724;SDS011;2376;53.544;10.226;2023-06-22T02:35:50;5.23;;;4.93;;
4724;SDS011;2376;53.544;10.226;2023-06-22T02:38:18;4.47;;;4.17;;
4724;SDS011;2376;53.544;10.226;2023-06-22T02:40:44;4.77;;;4.23;;
4724;SDS011;2376;53.544;10.226;2023-06-22T02:43:11;4.87;;;4.40;;
4724;SDS011;2376;53.544;10.226;2023-06-22T02:45:38;7.40;;;4.40;;
4724;SDS011;2376;53.544;10.226;2023-06-22T02:48:04;5.30;;;4.90;;
4724;SDS011;2376;53.544;10.226;2023-06-22T02:50:31;4.50;;;4.20;;
4724;SDS011;2376;53.544;10.226;2023-06-22T02:52:59;6.60;;;3.97;;
4724;SDS011;2376;53.544;10.226;2023-06-22T02:55:26;6.63;;;4.67;;
4724;SDS011;2376;53.544;10.226;2023-06-22T02:57:52;7.27;;;5.63;;
4724;SDS011;2376;53.544;10.226;2023-06-22T03:00:19;5.80;;;5.30;;
4724;SDS011;2376;53.544;10.226;2023-06-22T03:02:47;5.93;;;5.43;;
4724;SDS011;2376;53.544;10.226;2023-06-22T03:05:14;6.47;;;4.70;;
4724;SDS011;2376;53.544;10.226;2023-06-22T03:07:43;5.70;;;5.10;;
4724;SDS011;2376;53.544;10.226;2023-06-22T03:10:11;5.80;;;4.13;;
4724;SDS011;2376;53.544;10.226;2023-06-22T03:12:39;5.23;;;4.80;;
4724;SDS011;2376;53.544;10.226;2023-06-22T03:15:07;5.60;;;5.10;;
4724;SDS011;2376;53.544;10.226;2023-06-22T03:17:35;4.63;;;3.80;;
4724;SDS011;2376;53.544;10.226;2023-06-22T03:20:04;5.63;;;5.23;;
4724;SDS011;2376;53.544;10.226;2023-06-22T03:22:34;4.87;;;4.50;;
4724;SDS011;2376;53.544;10.226;2023-06-22T03:25:00;4.83;;;4.00;;
4724;SDS011;2376;53.544;10.226;2023-06-22T03:27:28;6.07;;;5.27;;
4724;SDS011;2376;53.544;10.226;2023-06-22T03:29:56;4.90;;;4.43;;
4724;SDS011;2376;53.544;10.226;2023-06-22T03:32:23;5.27;;;4.97;;
4724;SDS011;2376;53.544;10.226;2023-06-22T03:34:50;6.50;;;6.00;;
4724;SDS011;2376;53.544;10.226;2023-06-22T03:37:17;9.53;;;7.10;;
4724;SDS011;2376;53.544;10.226;2023-06-22T03:39:43;10.07;;;6.00;;
4724;SDS011;2376;53.544;10.226;2023-06-22T03:42:10;5.90;;;5.50;;
4724;SDS011;2376;53.544;10.226;2023-06-22T03:44:38;6.47;;;5.87;;
4724;SDS011;2376;53.544;10.226;2023-06-22T03:47:05;6.60;;;5.90;;
4724;SDS011;2376;53.544;10.226;2023-06-22T03:49:32;5.70;;;5.10;;
4724;SDS011;2376;53.544;10.226;2023-06-22T03:51:59;8.47;;;5.90;;
4724;SDS011;2376;53.544;10.226;2023-06-22T03:54:26;7.50;;;5.13;;
4724;SDS011;2376;53.544;10.226;2023-06-22T03:56:54;6.87;;;5.60;;
4724;SDS011;2376;53.544;10.226;2023-06-22T03:59:20;7.90;;;6.17;;
4724;SDS011;2376;53.544;10.226;2023-06-22T04:01:48;7.20;;;6.60;;
4724;SDS011;2376;53.544;10.226;2023-06-22T04:04:15;6.17;;;5.33;;
4724;SDS011;2376;53.544;10.226;2023-06-22T04:06:42;5.73;;;5.23;;
4724;SDS011;2376;53.544;10.226;2023-06-22T04:09:08;5.20;;;4.43;;
4724;SDS011;2376;53.544;10.226;2023-06-22T04:11:35;5.13;;;4.73;;
4724;SDS011;2376;53.544;10.226;2023-06-22T04:14:02;5.80;;;4.93;;
4724;SDS011;2376;53.544;10.226;2023-06-22T04:16:29;5.03;;;4.50;;
4724;SDS011;2376;53.544;10.226;2023-06-22T04:18:57;5.47;;;5.00;;
4724;SDS011;2376;53.544;10.226;2023-06-22T04:21:23;5.17;;;4.77;;
4724;SDS011;2376;53.544;10.226;2023-06-22T04:23:50;6.17;;;5.67;;
4724;SDS011;2376;53.544;10.226;2023-06-22T04:26:16;6.67;;;6.07;;
4724;SDS011;2376;53.544;10.226;2023-06-22T04:28:45;6.03;;;5.53;;
4724;SDS011;2376;53.544;10.226;2023-06-22T04:31:20;6.33;;;5.83;;
4724;SDS011;2376;53.544;10.226;2023-06-22T04:33:57;6.50;;;5.90;;
4724;SDS011;2376;53.544;10.226;2023-06-22T04:36:30;6.37;;;5.97;;
4724;SDS011;2376;53.544;10.226;2023-06-22T04:39:02;7.70;;;5.57;;
4724;SDS011;2376;53.544;10.226;2023-06-22T04:41:30;7.60;;;6.00;;
4724;SDS011;2376;53.544;10.226;2023-06-22T04:44:06;6.00;;;5.60;;
4724;SDS011;2376;53.544;10.226;2023-06-22T04:46:34;7.30;;;6.70;;
4724;SDS011;2376;53.544;10.226;2023-06-22T04:49:05;8.00;;;6.93;;
4724;SDS011;2376;53.544;10.226;2023-06-22T04:51:36;6.50;;;6.00;;
4724;SDS011;2376;53.544;10.226;2023-06-22T04:54:03;7.67;;;6.20;;
4724;SDS011;2376;53.544;10.226;2023-06-22T04:56:30;9.30;;;6.70;;
4724;SDS011;2376;53.544;10.226;2023-06-22T04:58:57;6.40;;;5.90;;
4724;SDS011;2376;53.544;10.226;2023-06-22T05:01:24;10.23;;;6.40;;
4724;SDS011;2376;53.544;10.226;2023-06-22T05:03:51;6.40;;;5.67;;
4724;SDS011;2376;53.544;10.226;2023-06-22T05:06:21;6.97;;;6.23;;
4724;SDS011;2376;53.544;10.226;2023-06-22T05:08:50;6.40;;;6.00;;
4724;SDS011;2376;53.544;10.226;2023-06-22T05:11:17;5.83;;;5.30;;
4724;SDS011;2376;53.544;10.226;2023-06-22T05:13:44;5.43;;;5.03;;
4724;SDS011;2376;53.544;10.226;2023-06-22T05:16:10;5.33;;;4.93;;
4724;SDS011;2376;53.544;10.226;2023-06-22T05:18:37;6.20;;;5.70;;
4724;SDS011;2376;53.544;10.226;2023-06-22T05:21:04;5.37;;;4.97;;
4724;SDS011;2376;53.544;10.226;2023-06-22T05:23:31;5.80;;;5.40;;
4724;SDS011;2376;53.544;10.226;2023-06-22T05:25:58;6.23;;;5.77;;
4724;SDS011;2376;53.544;10.226;2023-06-22T05:28:25;5.63;;;5.13;;
4724;SDS011;2376;53.544;10.226;2023-06-22T05:30:51;6.70;;;5.90;;
4724;SDS011;2376;53.544;10.226;2023-06-22T05:33:18;6.63;;;5.83;;
4724;SDS011;2376;53.544;10.226;2023-06-22T05:35:45;6.03;;;5.40;;
4724;SDS011;2376;53.544;10.226;2023-06-22T05:38:12;5.87;;;5.47;;
4724;SDS011;2376;53.544;10.226;2023-06-22T05:40:40;5.57;;;5.17;;
4724;SDS011;2376;53.544;10.226;2023-06-22T05:43:06;5.50;;;5.00;;
4724;SDS011;2376;53.544;10.226;2023-06-22T05:45:33;5.37;;;4.80;;
4724;SDS011;2376;53.544;10.226;2023-06-22T05:47:59;6.27;;;4.60;;
4724;SDS011;2376;53.544;10.226;2023-06-22T05:50:26;4.10;;;3.83;;
4724;SDS011;2376;53.544;10.226;2023-06-22T05:52:53;4.30;;;3.40;;
4724;SDS011;2376;53.544;10.226;2023-06-22T05:55:19;4.13;;;3.77;;
4724;SDS011;2376;53.544;10.226;2023-06-22T05:57:47;3.30;;;3.10;;
4724;SDS011;2376;53.544;10.226;2023-06-22T06:00:14;3.60;;;3.33;;
4724;SDS011;2376;53.544;10.226;2023-06-22T06:02:42;4.57;;;4.13;;
4724;SDS011;2376;53.544;10.226;2023-06-22T06:05:10;3.93;;;3.60;;
4724;SDS011;2376;53.544;10.226;2023-06-22T06:07:39;4.30;;;4.00;;
4724;SDS011;2376;53.544;10.226;2023-06-22T06:10:06;4.10;;;3.70;;
4724;SDS011;2376;53.544;10.226;2023-06-22T06:12:33;8.33;;;4.20;;
4724;SDS011;2376;53.544;10.226;2023-06-22T06:15:01;5.10;;;4.10;;
4724;SDS011;2376;53.544;10.226;2023-06-22T06:17:28;3.93;;;3.33;;
4724;SDS011;2376;53.544;10.226;2023-06-22T06:19:55;4.17;;;3.87;;
4724;SDS011;2376;53.544;10.226;2023-06-22T06:22:22;4.00;;;3.70;;
4724;SDS011;2376;53.544;10.226;2023-06-22T06:24:48;3.43;;;3.10;;
4724;SDS011;2376;53.544;10.226;2023-06-22T06:27:15;3.47;;;3.17;;
4724;SDS011;2376;53.544;10.226;2023-06-22T06:29:44;3.33;;;3.13;;
4724;SDS011;2376;53.544;10.226;2023-06-22T06:32:14;4.30;;;3.90;;
4724;SDS011;2376;53.544;10.226;2023-06-22T06:34:41;5.00;;;4.50;;
4724;SDS011;2376;53.544;10.226;2023-06-22T06:37:08;4.10;;;3.70;;
4724;SDS011;2376;53.544;10.226;2023-06-22T06:39:35;4.77;;;4.20;;
4724;SDS011;2376;53.544;10.226;2023-06-22T06:42:02;5.73;;;4.40;;
4724;SDS011;2376;53.544;10.226;2023-06-22T06:44:29;4.33;;;4.03;;
4724;SDS011;2376;53.544;10.226;2023-06-22T06:46:55;4.47;;;4.17;;
4724;SDS011;2376;53.544;10.226;2023-06-22T06:49:23;4.20;;;3.77;;
4724;SDS011;2376;53.544;10.226;2023-06-22T06:51:50;4.50;;;3.60;;
4724;SDS011;2376;53.544;10.226;2023-06-22T06:54:17;6.33;;;4.07;;
4724;SDS011;2376;53.544;10.226;2023-06-22T06:56:45;4.23;;;3.90;;
4724;SDS011;2376;53.544;10.226;2023-06-22T06:59:13;3.70;;;3.40;;
4724;SDS011;2376;53.544;10.226;2023-06-22T07:01:40;6.83;;;4.50;;
4724;SDS011;2376;53.544;10.226;2023-06-22T07:04:06;8.10;;;3.67;;
4724;SDS011;2376;53.544;10.226;2023-06-22T07:06:34;5.60;;;3.60;;
4724;SDS011;2376;53.544;10.226;2023-06-22T07:09:02;3.97;;;3.00;;
4724;SDS011;2376;53.544;10.226;2023-06-22T07:11:29;3.80;;;3.50;;
4724;SDS011;2376;53.544;10.226;2023-06-22T07:13:56;4.63;;;4.23;;
4724;SDS011;2376;53.544;10.226;2023-06-22T07:16:22;4.20;;;3.80;;
4724;SDS011;2376;53.544;10.226;2023-06-22T07:18:50;3.50;;;3.30;;
4724;SDS011;2376;53.544;10.226;2023-06-22T07:21:17;4.17;;;3.00;;
4724;SDS011;2376;53.544;10.226;2023-06-22T07:23:45;3.90;;;3.50;;
4724;SDS011;2376;53.544;10.226;2023-06-22T07:26:11;3.40;;;3.10;;
4724;SDS011;2376;53.544;10.226;2023-06-22T07:28:38;3.67;;;3.40;;
4724;SDS011;2376;53.544;10.226;2023-06-22T07:31:06;7.70;;;3.40;;
4724;SDS011;2376;53.544;10.226;2023-06-22T07:33:33;3.57;;;3.27;;
4724;SDS011;2376;53.544;10.226;2023-06-22T07:35:59;4.23;;;3.50;;
4724;SDS011;2376;53.544;10.226;2023-06-22T07:38:27;3.60;;;3.40;;
4724;SDS011;2376;53.544;10.226;2023-06-22T07:40:55;4.10;;;3.80;;
4724;SDS011;2376;53.544;10.226;2023-06-22T07:43:22;3.53;;;3.20;;
4724;SDS011;2376;53.544;10.226;2023-06-22T07:45:49;3.77;;;2.90;;
4724;SDS011;2376;53.544;10.226;2023-06-22T07:48:19;2.80;;;2.70;;
4724;SDS011;2376;53.544;10.226;2023-06-22T07:50:47;3.83;;;3.53;;
4724;SDS011;2376;53.544;10.226;2023-06-22T07:53:13;3.60;;;2.87;;
4724;SDS011;2376;53.544;10.226;2023-06-22T07:55:40;5.20;;;3.33;;
4724;SDS011;2376;53.544;10.226;2023-06-22T07:58:08;3.30;;;2.80;;
4724;SDS011;2376;53.544;10.226;2023-06-22T08:00:35;3.40;;;3.20;;
4724;SDS011;2376;53.544;10.226;2023-06-22T08:03:02;3.30;;;3.00;;
4724;SDS011;2376;53.544;10.226;2023-06-22T08:05:30;3.23;;;3.00;;
4724;SDS011;2376;53.544;10.226;2023-06-22T08:07:56;3.63;;;3.33;;
4724;SDS011;2376;53.544;10.226;2023-06-22T08:10:23;3.80;;;3.50;;
4724;SDS011;2376;53.544;10.226;2023-06-22T08:12:50;3.47;;;3.27;;
4724;SDS011;2376;53.544;10.226;2023-06-22T08:15:19;3.33;;;3.13;;
4724;SDS011;2376;53.544;10.226;2023-06-22T08:17:47;3.20;;;3.00;;
4724;SDS011;2376;53.544;10.226;2023-06-22T08:20:13;3.17;;;2.97;;
4724;SDS011;2376;53.544;10.226;2023-06-22T08:22:41;3.43;;;3.23;;
4724;SDS011;2376;53.544;10.226;2023-06-22T08:25:08;3.20;;;2.60;;
4724;SDS011;2376;53.544;10.226;2023-06-22T08:27:36;2.77;;;2.60;;
4724;SDS011;2376;53.544;10.226;2023-06-22T08:30:03;4.53;;;2.83;;
4724;SDS011;2376;53.544;10.226;2023-06-22T08:32:32;2.90;;;2.70;;
4724;SDS011;2376;53.544;10.226;2023-06-22T08:34:59;2.83;;;2.63;;
4724;SDS011;2376;53.544;10.226;2023-06-22T08:37:25;2.70;;;2.47;;
4724;SDS011;2376;53.544;10.226;2023-06-22T08:39:56;3.73;;;2.43;;
4724;SDS011;2376;53.544;10.226;2023-06-22T08:42:23;4.63;;;2.67;;
4724;SDS011;2376;53.544;10.226;2023-06-22T08:44:50;2.50;;;2.00;;
4724;SDS011;2376;53.544;10.226;2023-06-22T08:47:17;3.33;;;2.50;;
4724;SDS011;2376;53.544;10.226;2023-06-22T08:49:45;2.00;;;1.80;;
4724;SDS011;2376;53.544;10.226;2023-06-22T08:52:12;1.90;;;1.80;;
4724;SDS011;2376;53.544;10.226;2023-06-22T08:54:39;3.40;;;2.40;;
4724;SDS011;2376;53.544;10.226;2023-06-22T08:57:06;2.50;;;2.30;;
4724;SDS011;2376;53.544;10.226;2023-06-22T08:59:32;2.20;;;2.10;;
4724;SDS011;2376;53.544;10.226;2023-06-22T09:01:59;5.00;;;2.00;;
4724;SDS011;2376;53.544;10.226;2023-06-22T09:04:26;2.67;;;2.57;;
4724;SDS011;2376;53.544;10.226;2023-06-22T09:06:54;2.90;;;2.70;;
4724;SDS011;2376;53.544;10.226;2023-06-22T09:09:21;3.47;;;2.97;;
4724;SDS011;2376;53.544;10.226;2023-06-22T09:11:48;2.87;;;2.67;;
4724;SDS011;2376;53.544;10.226;2023-06-22T09:14:14;2.90;;;2.63;;
4724;SDS011;2376;53.544;10.226;2023-06-22T09:16:41;2.67;;;2.50;;
4724;SDS011;2376;53.544;10.226;2023-06-22T09:19:08;2.93;;;2.70;;
4724;SDS011;2376;53.544;10.226;2023-06-22T09:21:34;3.10;;;2.80;;
4724;SDS011;2376;53.544;10.226;2023-06-22T09:24:03;7.97;;;3.97;;
4724;SDS011;2376;53.544;10.226;2023-06-22T09:26:30;3.03;;;2.80;;
4724;SDS011;2376;53.544;10.226;2023-06-22T09:28:57;3.00;;;2.80;;
4724;SDS011;2376;53.544;10.226;2023-06-22T09:31:23;2.80;;;2.60;;
4724;SDS011;2376;53.544;10.226;2023-06-22T09:33:51;3.97;;;3.20;;
4724;SDS011;2376;53.544;10.226;2023-06-22T09:36:19;3.37;;;3.07;;
4724;SDS011;2376;53.544;10.226;2023-06-22T09:38:45;7.20;;;2.97;;
4724;SDS011;2376;53.544;10.226;2023-06-22T09:41:13;4.30;;;2.90;;
4724;SDS011;2376;53.544;10.226;2023-06-22T09:43:41;5.20;;;2.90;;
4724;SDS011;2376;53.544;10.226;2023-06-22T09:46:07;3.57;;;3.07;;
4724;SDS011;2376;53.544;10.226;2023-06-22T09:48:34;2.77;;;2.57;;
4724;SDS011;2376;53.544;10.226;2023-06-22T09:51:01;2.97;;;2.77;;
4724;SDS011;2376;53.544;10.226;2023-06-22T09:53:28;2.73;;;2.53;;
4724;SDS011;2376;53.544;10.226;2023-06-22T09:55:54;3.40;;;3.20;;
4724;SDS011;2376;53.544;10.226;2023-06-22T09:58:23;2.60;;;2.40;;
4724;SDS011;2376;53.544;10.226;2023-06-22T10:00:50;3.80;;;3.30;;
4724;SDS011;2376;53.544;10.226;2023-06-22T10:03:18;3.47;;;3.17;;
4724;SDS011;2376;53.544;10.226;2023-06-22T10:05:44;3.40;;;3.00;;
4724;SDS011;2376;53.544;10.226;2023-06-22T10:08:11;4.37;;;4.07;;
4724;SDS011;2376;53.544;10.226;2023-06-22T10:10:38;3.20;;;3.00;;
4724;SDS011;2376;53.544;10.226;2023-06-22T10:13:07;5.90;;;3.30;;
4724;SDS011;2376;53.544;10.226;2023-06-22T10:15:37;3.27;;;2.67;;
4724;SDS011;2376;53.544;10.226;2023-06-22T10:18:04;4.73;;;3.47;;
4724;SDS011;2376;53.544;10.226;2023-06-22T10:20:31;3.50;;;3.20;;
4724;SDS011;2376;53.544;10.226;2023-06-22T10:22:58;4.03;;;2.93;;
4724;SDS011;2376;53.544;10.226;2023-06-22T10:25:25;3.97;;;3.63;;
4724;SDS011;2376;53.544;10.226;2023-06-22T10:27:52;3.37;;;3.07;;
4724;SDS011;2376;53.544;10.226;2023-06-22T10:30:19;3.30;;;3.10;;
4724;SDS011;2376;53.544;10.226;2023-06-22T10:32:47;3.07;;;2.87;;
4724;SDS011;2376;53.544;10.226;2023-06-22T10:35:14;3.87;;;3.57;;
4724;SDS011;2376;53.544;10.226;2023-06-22T10:37:41;3.03;;;2.93;;
4724;SDS011;2376;53.544;10.226;2023-06-22T10:40:09;3.40;;;3.17;;
4724;SDS011;2376;53.544;10.226;2023-06-22T10:42:37;3.77;;;3.40;;
4724;SDS011;2376;53.544;10.226;2023-06-22T10:45:04;3.37;;;3.10;;
4724;SDS011;2376;53.544;10.226;2023-06-22T10:47:31;3.20;;;3.00;;
4724;SDS011;2376;53.544;10.226;2023-06-22T10:50:00;3.27;;;3.07;;
4724;SDS011;2376;53.544;10.226;2023-06-22T10:52:27;4.07;;;3.77;;
4724;SDS011;2376;53.544;10.226;2023-06-22T10:54:53;3.60;;;3.40;;
4724;SDS011;2376;53.544;10.226;2023-06-22T10:57:20;4.07;;;3.77;;
4724;SDS011;2376;53.544;10.226;2023-06-22T10:59:48;4.43;;;3.97;;
4724;SDS011;2376;53.544;10.226;2023-06-22T11:02:15;4.47;;;4.17;;
4724;SDS011;2376;53.544;10.226;2023-06-22T11:04:41;3.93;;;3.67;;
4724;SDS011;2376;53.544;10.226;2023-06-22T11:07:10;4.03;;;3.73;;
4724;SDS011;2376;53.544;10.226;2023-06-22T11:09:39;3.60;;;3.27;;
4724;SDS011;2376;53.544;10.226;2023-06-22T11:12:06;4.20;;;3.87;;
4724;SDS011;2376;53.544;10.226;2023-06-22T11:14:33;4.20;;;3.70;;
4724;SDS011;2376;53.544;10.226;2023-06-22T11:17:00;4.40;;;4.00;;
4724;SDS011;2376;53.544;10.226;2023-06-22T11:19:26;4.50;;;4.20;;
4724;SDS011;2376;53.544;10.226;2023-06-22T11:21:53;5.23;;;4.10;;
4724;SDS011;2376;53.544;10.226;2023-06-22T11:24:21;3.97;;;3.70;;
4724;SDS011;2376;53.544;10.226;2023-06-22T11:26:48;6.30;;;3.97;;
4724;SDS011;2376;53.544;10.226;2023-06-22T11:29:15;4.70;;;4.20;;
4724;SDS011;2376;53.544;10.226;2023-06-22T11:31:41;4.80;;;4.40;;
4724;SDS011;2376;53.544;10.226;2023-06-22T11:34:08;4.37;;;3.97;;
4724;SDS011;2376;53.544;10.226;2023-06-22T11:36:35;4.00;;;3.80;;
4724;SDS011;2376;53.544;10.226;2023-06-22T11:39:02;3.70;;;3.50;;
4724;SDS011;2376;53.544;10.226;2023-06-22T11:41:31;4.27;;;3.83;;
4724;SDS011;2376;53.544;10.226;2023-06-22T11:43:58;4.37;;;4.07;;
4724;SDS011;2376;53.544;10.226;2023-06-22T11:46:24;3.87;;;3.67;;
4724;SDS011;2376;53.544;10.226;2023-06-22T11:48:51;4.33;;;3.87;;
4724;SDS011;2376;53.544;10.226;2023-06-22T11:51:18;5.83;;;3.80;;
4724;SDS011;2376;53.544;10.226;2023-06-22T11:53:44;4.50;;;4.20;;
4724;SDS011;2376;53.544;10.226;2023-06-22T11:56:11;5.00;;;3.80;;
4724;SDS011;2376;53.544;10.226;2023-06-22T11:58:39;3.57;;;3.37;;
4724;SDS011;2376;53.544;10.226;2023-06-22T12:01:06;4.93;;;4.40;;
4724;SDS011;2376;53.544;10.226;2023-06-22T12:03:32;5.13;;;4.63;;
4724;SDS011;2376;53.544;10.226;2023-06-22T12:05:59;4.20;;;3.90;;
4724;SDS011;2376;53.544;10.226;2023-06-22T12:08:26;3.80;;;3.60;;
4724;SDS011;2376;53.544;10.226;2023-06-22T12:10:53;4.50;;;4.10;;
4724;SDS011;2376;53.544;10.226;2023-06-22T12:13:19;4.60;;;4.20;;
4724;SDS011;2376;53.544;10.226;2023-06-22T12:15:48;4.30;;;4.00;;
4724;SDS011;2376;53.544;10.226;2023-06-22T12:18:17;4.33;;;4.13;;
4724;SDS011;2376;53.544;10.226;2023-06-22T12:20:45;4.30;;;4.00;;
4724;SDS011;2376;53.544;10.226;2023-06-22T12:23:12;5.67;;;5.20;;
4724;SDS011;2376;53.544;10.226;2023-06-22T12:25:41;4.10;;;3.90;;
4724;SDS011;2376;53.544;10.226;2023-06-22T12:28:08;4.50;;;4.20;;
4724;SDS011;2376;53.544;10.226;2023-06-22T12:30:34;4.47;;;4.27;;
4724;SDS011;2376;53.544;10.226;2023-06-22T12:33:02;4.10;;;3.80;;
4724;SDS011;2376;53.544;10.226;2023-06-22T12:35:29;4.57;;;4.27;;
4724;SDS011;2376;53.544;10.226;2023-06-22T12:37:56;5.60;;;5.10;;
4724;SDS011;2376;53.544;10.226;2023-06-22T12:40:22;5.13;;;4.83;;
4724;SDS011;2376;53.544;10.226;2023-06-22T12:42:49;6.10;;;5.70;;
4724;SDS011;2376;53.544;10.226;2023-06-22T12:45:16;5.00;;;4.57;;
4724;SDS011;2376;53.544;10.226;2023-06-22T12:47:43;4.53;;;4.23;;
4724;SDS011;2376;53.544;10.226;2023-06-22T12:50:11;4.33;;;4.13;;
4724;SDS011;2376;53.544;10.226;2023-06-22T12:52:39;5.33;;;4.97;;
4724;SDS011;2376;53.544;10.226;2023-06-22T12:55:06;5.57;;;5.07;;
4724;SDS011;2376;53.544;10.226;2023-06-22T12:57:33;7.30;;;6.23;;
4724;SDS011;2376;53.544;10.226;2023-06-22T13:00:00;14.50;;;6.57;;
4724;SDS011;2376;53.544;10.226;2023-06-22T13:02:27;5.90;;;4.50;;
4724;SDS011;2376;53.544;10.226;2023-06-22T13:04:55;4.77;;;4.47;;
4724;SDS011;2376;53.544;10.226;2023-06-22T13:07:23;4.80;;;4.50;;
4724;SDS011;2376;53.544;10.226;2023-06-22T13:09:50;6.57;;;5.53;;
4724;SDS011;2376;53.544;10.226;2023-06-22T13:12:17;18.30;;;5.40;;
4724;SDS011;2376;53.544;10.226;2023-06-22T13:14:45;5.23;;;4.87;;
4724;SDS011;2376;53.544;10.226;2023-06-22T13:17:12;5.80;;;5.27;;
4724;SDS011;2376;53.544;10.226;2023-06-22T13:19:39;4.43;;;4.13;;
4724;SDS011;2376;53.544;10.226;2023-06-22T13:22:09;5.90;;;5.50;;
4724;SDS011;2376;53.544;10.226;2023-06-22T13:24:54;6.63;;;5.00;;
4724;SDS011;2376;53.544;10.226;2023-06-22T13:27:21;5.60;;;5.20;;
4724;SDS011;2376;53.544;10.226;2023-06-22T13:29:48;5.13;;;4.83;;
4724;SDS011;2376;53.544;10.226;2023-06-22T13:32:15;6.17;;;5.00;;
4724;SDS011;2376;53.544;10.226;2023-06-22T13:34:41;5.07;;;4.73;;
4724;SDS011;2376;53.544;10.226;2023-06-22T13:37:08;5.30;;;4.90;;
4724;SDS011;2376;53.544;10.226;2023-06-22T13:39:36;4.77;;;4.47;;
4724;SDS011;2376;53.544;10.226;2023-06-22T13:42:03;4.67;;;4.43;;
4724;SDS011;2376;53.544;10.226;2023-06-22T13:44:30;5.43;;;4.80;;
4724;SDS011;2376;53.544;10.226;2023-06-22T13:46:56;5.20;;;4.90;;
4724;SDS011;2376;53.544;10.226;2023-06-22T13:49:23;4.60;;;4.40;;
4724;SDS011;2376;53.544;10.226;2023-06-22T13:51:50;5.00;;;4.70;;
4724;SDS011;2376;53.544;10.226;2023-06-22T13:54:17;5.80;;;5.40;;
4724;SDS011;2376;53.544;10.226;2023-06-22T13:56:45;5.67;;;5.30;;
4724;SDS011;2376;53.544;10.226;2023-06-22T13:59:12;6.93;;;5.00;;
4724;SDS011;2376;53.544;10.226;2023-06-22T14:01:39;5.17;;;4.87;;
4724;SDS011;2376;53.544;10.226;2023-06-22T14:04:06;5.10;;;4.80;;
4724;SDS011;2376;53.544;10.226;2023-06-22T14:06:33;5.20;;;4.50;;
4724;SDS011;2376;53.544;10.226;2023-06-22T14:09:00;5.40;;;5.00;;
4724;SDS011;2376;53.544;10.226;2023-06-22T14:11:26;5.67;;;5.17;;
4724;SDS011;2376;53.544;10.226;2023-06-22T14:13:54;5.07;;;4.67;;
4724;SDS011;2376;53.544;10.226;2023-06-22T14:16:21;4.30;;;4.00;;
4724;SDS011;2376;53.544;10.226;2023-06-22T14:18:48;8.37;;;4.73;;
4724;SDS011;2376;53.544;10.226;2023-06-22T14:21:14;5.43;;;4.90;;
4724;SDS011;2376;53.544;10.226;2023-06-22T14:23:41;5.93;;;5.30;;
4724;SDS011;2376;53.544;10.226;2023-06-22T14:26:12;5.47;;;5.07;;
4724;SDS011;2376;53.544;10.226;2023-06-22T14:28:38;5.27;;;4.77;;
4724;SDS011;2376;53.544;10.226;2023-06-22T14:31:06;5.20;;;4.70;;
4724;SDS011;2376;53.544;10.226;2023-06-22T14:33:33;4.83;;;4.37;;
4724;SDS011;2376;53.544;10.226;2023-06-22T14:36:00;5.03;;;4.53;;
4724;SDS011;2376;53.544;10.226;2023-06-22T14:38:26;5.33;;;4.80;;
4724;SDS011;2376;53.544;10.226;2023-06-22T14:40:53;4.80;;;4.40;;
4724;SDS011;2376;53.544;10.226;2023-06-22T14:43:20;5.20;;;4.80;;
4724;SDS011;2376;53.544;10.226;2023-06-22T14:45:47;5.47;;;5.07;;
4724;SDS011;2376;53.544;10.226;2023-06-22T14:48:15;4.73;;;4.33;;
4724;SDS011;2376;53.544;10.226;2023-06-22T14:50:41;6.10;;;5.70;;
4724;SDS011;2376;53.544;10.226;2023-06-22T14:53:08;4.90;;;4.50;;
4724;SDS011;2376;53.544;10.226;2023-06-22T14:55:35;4.97;;;4.67;;
4724;SDS011;2376;53.544;10.226;2023-06-22T14:58:01;4.80;;;4.50;;
4724;SDS011;2376;53.544;10.226;2023-06-22T15:00:28;5.77;;;5.33;;
4724;SDS011;2376;53.544;10.226;2023-06-22T15:02:55;5.57;;;4.97;;